»·PEaware :: N971KV KSNA-KEMT

N971KV :: KSNA-KEMT

FLIGHT INFORMATION

Flight Status: Arrived
Operator: Privately registered:
United States
More flights under this callsign
Pilot: Konstantinos V. (22343)
Aircraft: CESSNA 172 SKYHAWK
(C172)
More flights by this aircraft type
Origin: KSNA John Wayne-Orange Co
United States
Destination: KEMT El Monte
United States
More flights between these airports :: More routes between these airports
Route: +SLI V8 POXKU V363 POM
File this flight plan on PilotEdge
Remarks: I-4 RATING
Altitude:
(Current/Filed)
5,000ft
Speed:
(Current/Filed)
110kts
Departed: 25-Jan-19 09:58 PM
Arrived: 25-Jan-19 10:32 PM
Distance/Time
Traveled:
26nm/0:34
Distance/Time
To Go:
Arrived

Flight Plot

Page will automatically refresh every two minutes.


Map Options




Map Legend


Flown Route
Filed Route
Departure Airport
Arrival Airport
Navaid (VOR, NDB)
Fix

Horizontal Profiles

Position Reports

Time Latitude Longitude Heading Altitude Ground
Speed
25-Jan-19 21:37 33.682393 -117.860317 118 60ft 0kts
25-Jan-19 21:38 33.682393 -117.860317 118 60ft 0kts
25-Jan-19 21:39 33.682393 -117.860317 118 60ft 0kts
25-Jan-19 21:40 33.682393 -117.860317 118 60ft 0kts
25-Jan-19 21:41 33.682393 -117.860317 118 60ft 0kts
25-Jan-19 21:42 33.682393 -117.860317 118 60ft 0kts
25-Jan-19 21:43 33.682393 -117.860317 118 60ft 0kts
25-Jan-19 21:44 33.682393 -117.860317 118 60ft 0kts
25-Jan-19 21:45 33.682393 -117.860317 118 60ft 0kts
25-Jan-19 21:46 33.682393 -117.860317 118 60ft 0kts
25-Jan-19 21:47 33.682393 -117.860317 118 60ft 0kts
25-Jan-19 21:48 33.682393 -117.860317 118 60ft 0kts
25-Jan-19 21:49 33.682393 -117.860317 118 60ft 0kts
25-Jan-19 21:50 33.671175 -117.867613 32 60ft 0kts
25-Jan-19 21:51 33.671175 -117.867613 32 60ft 0kts
25-Jan-19 21:52 33.673686 -117.866711 25 60ft 6kts
25-Jan-19 21:53 33.678885 -117.863448 26 60ft 18kts
25-Jan-19 21:54 33.679857 -117.863335 303 60ft 1kts
25-Jan-19 21:55 33.679862 -117.863346 302 60ft 0kts
25-Jan-19 21:56 33.680075 -117.863810 292 60ft 5kts
25-Jan-19 21:57 33.668101 -117.872152 218 357ft 87kts
25-Jan-19 21:58 33.651910 -117.895836 231 1066ft 96kts
25-Jan-19 21:59 33.634874 -117.921165 231 1766ft 98kts
25-Jan-19 22:00 33.617660 -117.946600 231 2463ft 98kts
25-Jan-19 22:01 33.617693 -117.971668 349 3132ft 94kts
25-Jan-19 22:02 33.641372 -117.961562 21 3816ft 91kts
25-Jan-19 22:03 33.662734 -117.950591 21 4470ft 87kts
25-Jan-19 22:04 33.684729 -117.939108 21 4999ft 98kts
25-Jan-19 22:05 33.711339 -117.925425 21 5001ft 114kts
25-Jan-19 22:06 33.742126 -117.921044 1 5000ft 115kts
25-Jan-19 22:07 33.769411 -117.920238 1 4999ft 111kts
25-Jan-19 22:08 33.798919 -117.919370 1 5000ft 110kts
25-Jan-19 22:09 33.820962 -117.899708 49 5000ft 112kts
25-Jan-19 22:10 33.832362 -117.864332 70 5000ft 115kts
25-Jan-19 22:11 33.841153 -117.827554 70 4995ft 115kts
25-Jan-19 22:12 33.850050 -117.790147 70 4967ft 114kts
25-Jan-19 22:13 33.871820 -117.776981 348 4953ft 106kts
25-Jan-19 22:14 33.900620 -117.784253 359 4958ft 105kts
25-Jan-19 22:15 33.919863 -117.784695 359 4960ft 105kts
25-Jan-19 22:16 33.948807 -117.785251 359 4967ft 104kts
25-Jan-19 22:17 33.977854 -117.785748 359 4976ft 104kts
25-Jan-19 22:18 34.007087 -117.786208 0 4932ft 105kts
25-Jan-19 22:19 34.035763 -117.787934 337 4946ft 104kts
25-Jan-19 22:20 34.064378 -117.788641 2 4765ft 114kts
25-Jan-19 22:21 34.096741 -117.787719 2 4019ft 96kts
25-Jan-19 22:22 34.111858 -117.795595 290 4020ft 108kts
25-Jan-19 22:23 34.114673 -117.822819 281 4020ft 113kts
25-Jan-19 22:24 34.118782 -117.859266 281 4018ft 113kts
25-Jan-19 22:25 34.122334 -117.890113 281 4019ft 113kts
25-Jan-19 22:26 34.126984 -117.929073 281 3805ft 106kts
25-Jan-19 22:27 34.131673 -117.965779 280 3083ft 114kts
25-Jan-19 22:28 34.135391 -117.994319 278 3016ft 80kts
25-Jan-19 22:29 34.120718 -118.013755 212 1958ft 121kts
25-Jan-19 22:30 34.097853 -118.028085 204 518ft 75kts
25-Jan-19 22:31 34.083188 -118.036285 179 299ft 8kts
25-Jan-19 22:32 34.083038 -118.036043 109 299ft 0kts
25-Jan-19 22:33 34.084417 -118.034350 36 299ft 0kts

Navigation Log

Ident Type
Flight plan parsing failed, navigation log unavailable